createdAt,value
2019-02-18T00:00:38.659Z,81.30
2019-02-18T00:03:08.365Z,81.40
2019-02-18T00:05:37.656Z,81.60
2019-02-18T00:08:06.980Z,81.60
2019-02-18T00:10:36.306Z,81.30
2019-02-18T00:13:05.643Z,81.40
2019-02-18T00:15:34.942Z,81.80
2019-02-18T00:18:04.288Z,82.10
2019-02-18T00:20:33.666Z,82.50
2019-02-18T00:23:03.006Z,82.40
2019-02-18T00:25:32.317Z,81.90
2019-02-18T00:28:01.647Z,82.40
2019-02-18T00:30:31.984Z,82.30
2019-02-18T00:33:01.317Z,82.20
2019-02-18T00:35:30.605Z,82.30
2019-02-18T00:37:59.914Z,82.00
2019-02-18T00:40:29.244Z,82.10
2019-02-18T00:42:58.558Z,81.90
2019-02-18T00:45:27.925Z,82.10
2019-02-18T00:47:57.241Z,82.60
2019-02-18T00:50:26.554Z,82.80
2019-02-18T00:52:55.861Z,82.20
2019-02-18T00:55:25.174Z,82.70
2019-02-18T00:57:54.485Z,82.70
2019-02-18T01:00:23.848Z,82.90
2019-02-18T01:02:53.158Z,82.50
2019-02-18T01:05:22.484Z,82.20
2019-02-18T01:07:51.982Z,82.10
2019-02-18T01:10:21.307Z,82.00
2019-02-18T01:12:50.618Z,82.40
2019-02-18T01:15:19.939Z,82.70
2019-02-18T01:17:49.264Z,82.80
2019-02-18T01:20:18.658Z,82.80
2019-02-18T01:22:47.949Z,82.60
2019-02-18T01:25:17.282Z,82.50
2019-02-18T01:27:46.611Z,82.40
2019-02-18T01:30:16.962Z,82.40
2019-02-18T01:32:46.287Z,82.50
2019-02-18T01:35:15.590Z,82.50
2019-02-18T01:37:46.241Z,82.50
2019-02-18T01:40:16.038Z,82.40
2019-02-18T01:42:45.349Z,82.60
2019-02-18T01:45:15.050Z,82.40
2019-02-18T01:47:44.362Z,82.30
2019-02-18T01:50:26.202Z,82.20
2019-02-18T01:52:55.494Z,82.20
2019-02-18T01:55:24.814Z,82.30
2019-02-18T01:57:54.123Z,82.10
2019-02-18T02:00:23.506Z,82.10
2019-02-18T02:02:52.823Z,82.20
2019-02-18T02:05:22.274Z,82.60
2019-02-18T02:07:56.388Z,82.60
2019-02-18T02:10:22.646Z,82.70
2019-02-18T02:12:53.490Z,82.60
2019-02-18T02:15:26.355Z,82.20
2019-02-18T02:17:55.662Z,82.40
2019-02-18T02:20:24.973Z,82.50
2019-02-18T02:22:54.280Z,82.60
2019-02-18T02:25:23.662Z,82.60
2019-02-18T02:27:52.969Z,82.70
2019-02-18T02:30:22.312Z,83.10
2019-02-18T02:32:51.652Z,83.10
2019-02-18T02:35:20.978Z,82.80
2019-02-18T02:37:50.358Z,82.70
2019-02-18T02:40:19.652Z,82.80
2019-02-18T02:42:48.971Z,83.00
2019-02-18T02:45:18.307Z,83.00
2019-02-18T02:47:47.651Z,83.00
2019-02-18T02:50:16.971Z,82.80
2019-02-18T02:52:46.335Z,82.80
2019-02-18T02:55:15.634Z,82.70
2019-02-18T02:57:44.962Z,82.50
2019-02-18T03:00:15.507Z,82.60
2019-02-18T03:02:44.811Z,82.80
2019-02-18T03:05:14.193Z,83.00
2019-02-18T03:07:43.592Z,82.60
2019-02-18T03:10:13.691Z,82.70
2019-02-18T03:12:43.015Z,83.00
2019-02-18T03:15:18.289Z,83.30
2019-02-18T03:17:47.643Z,83.10
2019-02-18T03:20:17.000Z,82.70
2019-02-18T03:22:46.318Z,82.80
2019-02-18T03:25:29.167Z,82.70
2019-02-18T03:28:05.144Z,83.00
2019-02-18T03:30:43.656Z,83.10
2019-02-18T03:33:18.900Z,83.40
2019-02-18T03:35:48.209Z,82.80
2019-02-18T03:38:17.524Z,82.60
2019-02-18T03:40:46.826Z,82.80
2019-02-18T03:43:16.286Z,83.00
2019-02-18T03:45:45.592Z,83.20
2019-02-18T03:48:14.919Z,83.30
2019-02-18T03:50:44.228Z,83.10
2019-02-18T03:53:13.551Z,82.80
2019-02-18T03:55:42.922Z,83.10
2019-02-18T03:58:12.488Z,83.30
2019-02-18T04:00:41.871Z,83.20
2019-02-18T04:03:11.550Z,83.10
2019-02-18T04:05:41.026Z,83.00
2019-02-18T04:08:10.347Z,83.10
2019-02-18T04:10:39.650Z,82.80
2019-02-18T04:13:08.947Z,82.90
2019-02-18T04:15:38.342Z,82.70
2019-02-18T04:18:07.645Z,83.10
2019-02-18T04:20:36.961Z,82.80
2019-02-18T04:23:06.274Z,83.20
2019-02-18T04:25:35.593Z,83.50
2019-02-18T04:28:04.984Z,83.50
2019-02-18T04:30:34.305Z,83.50
2019-02-18T04:33:03.650Z,83.10
2019-02-18T04:35:32.965Z,83.20
2019-02-18T04:38:02.283Z,82.60
2019-02-18T04:40:31.606Z,82.90
2019-02-18T04:43:00.915Z,82.90
2019-02-18T04:45:30.311Z,82.60
2019-02-18T04:47:59.627Z,82.80
2019-02-18T04:50:28.938Z,82.90
2019-02-18T04:52:58.273Z,83.10
2019-02-18T04:55:27.574Z,83.20
2019-02-18T04:57:56.884Z,83.20
2019-02-18T05:00:26.223Z,83.40
2019-02-18T05:02:55.524Z,83.30
2019-02-18T05:05:25.031Z,83.50
2019-02-18T05:07:54.346Z,83.70
2019-02-18T05:10:24.055Z,83.10
2019-02-18T05:12:53.386Z,82.90
2019-02-18T05:15:22.743Z,83.00
2019-02-18T05:17:52.100Z,83.30
2019-02-18T05:20:21.503Z,83.10
2019-02-18T05:22:50.898Z,82.90
2019-02-18T05:25:20.217Z,82.50
2019-02-18T05:27:49.539Z,82.80
2019-02-18T05:30:18.906Z,82.70
2019-02-18T05:32:48.277Z,83.00
2019-02-18T05:35:17.595Z,82.80
2019-02-18T05:37:47.055Z,83.10
2019-02-18T05:40:16.401Z,83.20
2019-02-18T05:42:45.729Z,83.20
2019-02-18T05:45:15.042Z,83.20
2019-02-18T05:47:44.361Z,83.30
2019-02-18T05:50:13.771Z,83.30
2019-02-18T05:52:43.082Z,83.40
2019-02-18T05:55:12.755Z,82.90
2019-02-18T05:57:43.139Z,83.10
2019-02-18T06:00:13.238Z,83.10
2019-02-18T06:02:42.563Z,82.90
2019-02-18T06:05:11.880Z,83.10
2019-02-18T06:07:41.263Z,83.00
2019-02-18T06:10:10.711Z,82.70
2019-02-18T06:12:40.026Z,82.80
2019-02-18T06:15:10.103Z,82.90
2019-02-18T06:17:39.413Z,82.60
2019-02-18T06:20:09.401Z,82.60
2019-02-18T06:22:39.025Z,82.80
2019-02-18T06:25:08.442Z,82.70
2019-02-18T06:27:37.729Z,82.70
2019-02-18T06:30:09.889Z,82.50
2019-02-18T06:32:39.211Z,82.50
2019-02-18T06:35:08.755Z,82.40
2019-02-18T06:37:38.080Z,82.60
2019-02-18T06:40:08.949Z,82.90
2019-02-18T06:42:38.334Z,82.80
2019-02-18T06:45:12.028Z,83.10
2019-02-18T06:47:41.519Z,83.20
2019-02-18T06:50:11.134Z,83.00
2019-02-18T06:52:40.463Z,83.10
2019-02-18T06:55:09.784Z,83.00
2019-02-18T06:57:40.861Z,83.30
2019-02-18T07:00:12.038Z,83.20
2019-02-18T07:02:42.990Z,83.10
2019-02-18T07:05:14.047Z,83.80
2019-02-18T07:07:47.685Z,83.20
2019-02-18T07:10:24.641Z,83.00
2019-02-18T07:12:54.070Z,82.70
2019-02-18T07:15:23.387Z,83.20
2019-02-18T07:17:52.755Z,83.40
2019-02-18T07:20:22.058Z,83.30
2019-02-18T07:22:51.388Z,83.10
2019-02-18T07:25:20.711Z,83.00
2019-02-18T07:27:50.100Z,82.90
2019-02-18T07:30:19.399Z,82.90
2019-02-18T07:32:48.731Z,82.70
2019-02-18T07:35:18.043Z,82.40
2019-02-18T07:37:47.393Z,82.90
2019-02-18T07:40:16.703Z,83.10
2019-02-18T07:42:46.071Z,83.30
2019-02-18T07:45:15.450Z,83.50
2019-02-18T07:47:44.787Z,83.70
2019-02-18T07:50:20.588Z,83.50
2019-02-18T07:52:45.190Z,83.60
2019-02-18T07:55:14.513Z,83.80
2019-02-18T07:57:43.996Z,83.60
2019-02-18T08:00:14.677Z,83.80
2019-02-18T08:02:43.993Z,83.60
2019-02-18T08:05:13.329Z,83.00
2019-02-18T08:07:42.638Z,83.00
2019-02-18T08:10:12.652Z,83.30
2019-02-18T08:12:42.129Z,83.30
2019-02-18T08:15:11.695Z,82.80
2019-02-18T08:17:41.006Z,82.80
2019-02-18T08:20:11.277Z,82.70
2019-02-18T08:22:40.573Z,82.80
2019-02-18T08:25:12.031Z,83.00
2019-02-18T08:27:41.328Z,83.20
2019-02-18T08:30:12.969Z,83.60
2019-02-18T08:32:42.286Z,83.40
2019-02-18T08:35:11.669Z,83.30
2019-02-18T08:37:40.962Z,83.40
2019-02-18T08:40:10.286Z,83.40
2019-02-18T08:42:39.698Z,83.10
2019-02-18T08:45:11.668Z,83.10
2019-02-18T08:47:40.978Z,83.00
2019-02-18T08:50:13.427Z,82.70
2019-02-18T08:52:42.738Z,82.70
2019-02-18T08:55:13.711Z,82.80
2019-02-18T08:57:43.033Z,82.70
2019-02-18T09:00:15.089Z,82.50
2019-02-18T09:02:44.403Z,82.70
2019-02-18T09:05:13.819Z,82.60
2019-02-18T09:07:43.252Z,82.60
2019-02-18T09:10:14.307Z,82.60
2019-02-18T09:12:43.618Z,82.40
2019-02-18T09:15:14.233Z,82.00
2019-02-18T09:17:43.895Z,81.90
2019-02-18T09:20:13.269Z,81.60
2019-02-18T09:22:59.353Z,81.30
2019-02-18T09:25:30.315Z,81.40
2019-02-18T09:27:59.622Z,80.90
2019-02-18T09:30:30.654Z,80.50
2019-02-18T09:32:59.990Z,80.30
2019-02-18T09:35:29.328Z,80.00
2019-02-18T09:37:58.628Z,80.40
2019-02-18T09:40:27.932Z,79.70
2019-02-18T09:42:57.255Z,79.40
2019-02-18T09:45:26.568Z,79.20
2019-02-18T09:47:55.892Z,79.10
2019-02-18T09:50:25.177Z,78.80
2019-02-18T09:52:54.486Z,78.60
2019-02-18T09:55:23.842Z,78.40
2019-02-18T09:57:53.163Z,78.10
2019-02-18T10:00:22.465Z,77.80
2019-02-18T10:02:51.770Z,77.70
2019-02-18T10:05:21.084Z,78.10
2019-02-18T10:07:50.411Z,77.80
2019-02-18T10:10:19.733Z,77.50
2019-02-18T10:12:49.042Z,77.30
2019-02-18T10:15:18.397Z,76.80
2019-02-18T10:17:49.075Z,76.50
2019-02-18T10:20:18.375Z,69.90
2019-02-18T10:22:47.711Z,63.60
2019-02-18T10:25:17.024Z,54.60
2019-02-18T12:55:00.389Z,41.20
2019-02-18T12:57:30.128Z,41.30
2019-02-18T13:02:31.062Z,41.40
2019-02-18T13:05:00.429Z,41.40
2019-02-18T13:07:29.897Z,41.20
2019-02-18T13:09:59.528Z,41.70
2019-02-18T13:12:30.443Z,41.50
2019-02-18T13:15:00.337Z,41.70
2019-02-18T13:17:29.743Z,41.70
2019-02-18T13:19:59.059Z,41.70
2019-02-18T13:22:28.361Z,41.60
2019-02-18T13:24:57.816Z,41.90
2019-02-18T13:27:27.114Z,41.90
2019-02-18T13:29:56.443Z,41.60
2019-02-18T13:32:26.123Z,42.00
2019-02-18T13:34:55.425Z,41.90
2019-02-18T13:37:24.766Z,41.90
2019-02-18T13:39:54.143Z,41.90
2019-02-18T13:42:23.454Z,42.50
2019-02-18T13:44:52.850Z,42.30
2019-02-18T13:47:22.418Z,42.80
2019-02-18T13:49:51.771Z,42.90
2019-02-18T13:52:21.093Z,42.70
2019-02-18T13:54:50.467Z,43.20
2019-02-18T13:57:19.821Z,43.00
2019-02-18T13:59:49.128Z,44.70
2019-02-18T14:02:18.817Z,46.10
2019-02-18T14:04:48.186Z,47.60
2019-02-18T14:07:17.498Z,46.80
2019-02-18T14:09:46.809Z,46.30
2019-02-18T14:12:16.539Z,45.90
2019-02-18T14:14:46.382Z,45.60
2019-02-18T14:17:16.070Z,44.40
2019-02-18T14:19:45.365Z,44.60
2019-02-18T14:22:14.753Z,44.50
2019-02-18T14:24:44.068Z,44.60
2019-02-18T14:27:13.394Z,44.50
2019-02-18T14:29:42.759Z,45.00
2019-02-18T14:32:18.863Z,43.90
2019-02-18T14:34:48.166Z,44.20
2019-02-18T14:37:17.496Z,45.10
2019-02-18T14:39:46.871Z,46.20
2019-02-18T14:45:12.678Z,46.10
2019-02-18T14:47:41.990Z,46.80
2019-02-18T14:50:11.514Z,47.50
2019-02-18T14:52:40.835Z,45.90
2019-02-18T14:55:10.206Z,47.60
2019-02-18T14:57:39.565Z,48.90
2019-02-18T15:00:16.207Z,50.70
2019-02-18T15:02:45.521Z,50.90
2019-02-18T15:05:15.361Z,52.70
2019-02-18T15:07:44.946Z,54.20
2019-02-18T15:10:15.408Z,55.10
2019-02-18T15:12:45.859Z,55.70
2019-02-18T15:15:15.778Z,56.50
2019-02-18T15:17:45.274Z,57.10
2019-02-18T15:20:15.658Z,57.90
2019-02-18T15:22:44.978Z,57.80
2019-02-18T15:25:14.551Z,58.30
2019-02-18T15:27:43.938Z,58.80
2019-02-18T15:30:17.015Z,59.70
2019-02-18T15:32:46.409Z,59.80
2019-02-18T15:35:16.321Z,60.30
2019-02-18T15:37:45.874Z,60.80
2019-02-18T15:40:17.212Z,61.10
2019-02-18T15:42:46.514Z,61.40
2019-02-18T15:45:15.987Z,61.40
2019-02-18T15:47:45.322Z,62.20
2019-02-18T15:50:14.986Z,62.30
2019-02-18T15:52:44.301Z,62.50
2019-02-18T15:55:14.678Z,62.90
2019-02-18T15:57:43.994Z,63.30
2019-02-18T16:00:16.114Z,63.70
2019-02-18T16:02:45.444Z,64.20
2019-02-18T16:05:14.760Z,64.30
2019-02-18T16:07:44.141Z,64.70
2019-02-18T16:10:13.794Z,65.20
2019-02-18T16:12:50.455Z,65.30
2019-02-18T16:15:14.358Z,65.90
2019-02-18T16:17:44.061Z,66.30
2019-02-18T16:20:14.190Z,66.50
2019-02-18T16:22:43.495Z,66.90
2019-02-18T16:25:15.834Z,66.80
2019-02-18T16:27:45.213Z,66.80
2019-02-18T16:30:15.750Z,67.30
2019-02-18T16:32:45.354Z,67.70
2019-02-18T16:35:14.677Z,67.70
2019-02-18T16:37:43.978Z,68.30
2019-02-18T16:40:15.806Z,68.10
2019-02-18T16:42:45.250Z,68.30
2019-02-18T16:45:15.114Z,68.30
2019-02-18T16:47:45.534Z,68.30
2019-02-18T16:50:14.948Z,68.40
2019-02-18T16:52:44.254Z,68.40
2019-02-18T16:55:15.341Z,68.80
2019-02-18T16:57:45.847Z,69.20
2019-02-18T17:00:23.175Z,69.30
2019-02-18T17:02:52.767Z,69.60
2019-02-18T17:05:22.082Z,69.60
2019-02-18T17:07:51.382Z,69.70
2019-02-18T17:10:20.774Z,70.00
2019-02-18T17:12:50.638Z,70.50
2019-02-18T17:15:20.043Z,70.70
2019-02-18T17:17:49.462Z,70.70
2019-02-18T17:20:18.856Z,70.70
2019-02-18T17:22:48.171Z,71.20
2019-02-18T17:25:17.491Z,71.10
2019-02-18T17:27:47.177Z,71.00
2019-02-18T17:30:16.870Z,71.80
2019-02-18T17:32:46.174Z,71.60
2019-02-18T17:35:15.674Z,71.60
2019-02-18T17:37:45.018Z,71.70
2019-02-18T17:40:14.922Z,71.80
2019-02-18T17:42:44.514Z,72.00
2019-02-18T17:45:17.981Z,72.30
2019-02-18T17:47:47.298Z,71.90
2019-02-18T17:50:17.428Z,72.20
2019-02-18T17:52:47.185Z,72.10
2019-02-18T17:55:17.861Z,71.90
2019-02-18T17:57:47.206Z,71.70
2019-02-18T18:00:25.912Z,72.00
2019-02-18T18:02:56.354Z,72.00
2019-02-18T18:05:25.833Z,72.30
2019-02-18T18:07:55.407Z,72.10
2019-02-18T18:10:25.239Z,72.80
2019-02-18T18:12:54.545Z,73.10
2019-02-18T18:15:23.882Z,73.20
2019-02-18T18:17:53.261Z,73.60
2019-02-18T18:20:22.698Z,73.90
2019-02-18T18:22:52.086Z,73.90
2019-02-18T18:25:21.398Z,74.00
2019-02-18T18:27:50.780Z,74.00
2019-02-18T18:30:20.326Z,73.90
2019-02-18T18:32:49.760Z,74.10
2019-02-18T18:35:19.215Z,74.20
2019-02-18T18:37:48.513Z,74.50
2019-02-18T18:40:19.885Z,74.60
2019-02-18T18:42:49.185Z,74.80
2019-02-18T18:45:18.775Z,74.80
2019-02-18T18:47:48.062Z,74.80
2019-02-18T18:50:21.658Z,75.30
2019-02-18T18:52:50.967Z,75.40
2019-02-18T18:55:20.514Z,75.50
2019-02-18T18:57:50.041Z,75.80
2019-02-18T19:00:24.181Z,76.20
2019-02-18T19:02:54.044Z,75.90
2019-02-18T19:05:23.649Z,76.20
2019-02-18T19:07:53.364Z,75.70
2019-02-18T19:10:22.794Z,75.80
2019-02-18T19:12:52.202Z,76.10
2019-02-18T19:15:21.950Z,75.80
2019-02-18T19:17:51.457Z,76.10
2019-02-18T19:20:20.869Z,75.90
2019-02-18T19:23:02.625Z,75.60
2019-02-18T19:25:31.931Z,76.00
2019-02-18T19:28:01.412Z,76.10
2019-02-18T19:30:33.385Z,76.40
2019-02-18T19:33:02.798Z,76.60
2019-02-18T19:35:32.156Z,77.00
2019-02-18T19:38:01.724Z,76.90
2019-02-18T19:40:31.066Z,76.50
2019-02-18T19:43:00.498Z,76.30
2019-02-18T19:45:29.802Z,76.70
2019-02-18T19:47:59.131Z,76.80
2019-02-18T19:50:28.638Z,76.90
2019-02-18T19:52:58.026Z,76.60
2019-02-18T19:55:28.391Z,76.70
2019-02-18T19:57:58.206Z,77.00
2019-02-18T20:00:27.526Z,77.20
2019-02-18T20:02:56.922Z,77.40
2019-02-18T20:05:26.274Z,77.80
2019-02-18T20:07:55.610Z,78.00
2019-02-18T20:10:25.982Z,77.70
2019-02-18T20:12:55.774Z,77.30
2019-02-18T20:15:25.066Z,77.10
2019-02-18T20:17:54.390Z,77.00
2019-02-18T20:20:23.711Z,77.10
2019-02-18T20:22:53.118Z,77.20
2019-02-18T20:25:22.535Z,77.40
2019-02-18T20:27:51.897Z,77.50
2019-02-18T20:30:21.255Z,77.50
2019-02-18T20:32:50.576Z,77.30
2019-02-18T20:35:19.878Z,77.40
2019-02-18T20:37:49.383Z,77.80
2019-02-18T20:40:18.687Z,77.90
2019-02-18T20:42:48.076Z,78.20
2019-02-18T20:45:17.450Z,78.10
2019-02-18T20:47:46.747Z,78.20
2019-02-18T20:50:16.429Z,78.60
2019-02-18T20:52:45.838Z,79.20
2019-02-18T20:55:15.894Z,79.40
2019-02-18T20:57:45.283Z,79.60
2019-02-18T21:00:17.379Z,79.10
2019-02-18T21:02:46.792Z,79.50
2019-02-18T21:05:16.169Z,79.40
2019-02-18T21:07:45.503Z,79.30
2019-02-18T21:10:20.235Z,79.10
2019-02-18T21:12:49.658Z,79.10
2019-02-18T21:15:19.010Z,79.40
2019-02-18T21:17:48.321Z,79.00
2019-02-18T21:20:17.652Z,78.80
2019-02-18T21:22:47.491Z,78.70
2019-02-18T21:25:16.886Z,78.80
2019-02-18T21:27:46.309Z,78.80
2019-02-18T21:30:16.866Z,78.80
2019-02-18T21:32:46.206Z,78.80
2019-02-18T21:35:15.888Z,79.30
2019-02-18T21:37:45.574Z,79.50
2019-02-18T21:40:14.914Z,79.70
2019-02-18T21:42:44.419Z,79.70
2019-02-18T21:45:14.982Z,79.60
2019-02-18T21:47:44.303Z,79.70
2019-02-18T21:50:13.962Z,79.30
2019-02-18T21:52:43.288Z,79.20
2019-02-18T21:55:13.226Z,79.60
2019-02-18T21:57:42.551Z,79.60
2019-02-18T22:00:18.298Z,79.60
2019-02-18T22:02:47.870Z,80.00
2019-02-18T22:05:17.559Z,80.30
2019-02-18T22:07:47.022Z,79.90
2019-02-18T22:10:16.381Z,79.40
2019-02-18T22:12:45.702Z,79.50
2019-02-18T22:15:15.657Z,79.70
2019-02-18T22:17:45.005Z,80.10
2019-02-18T22:20:14.710Z,80.30
2019-02-18T22:22:44.104Z,80.30
2019-02-18T22:25:13.862Z,80.10
2019-02-18T22:27:43.633Z,80.10
2019-02-18T22:30:14.830Z,80.60
2019-02-18T22:32:45.163Z,80.30
2019-02-18T22:35:14.865Z,80.00
2019-02-18T22:37:44.186Z,80.10
2019-02-18T22:40:14.131Z,80.20
2019-02-18T22:42:43.470Z,80.00
2019-02-18T22:45:13.183Z,79.80
2019-02-18T22:47:42.482Z,80.10
2019-02-18T22:50:12.573Z,81.00
2019-02-18T22:52:41.883Z,81.10
2019-02-18T22:55:11.486Z,80.90
2019-02-18T22:57:40.777Z,81.40
2019-02-18T23:00:16.255Z,81.90
2019-02-18T23:02:47.270Z,81.80
2019-02-18T23:05:16.934Z,81.10
2019-02-18T23:07:46.306Z,80.90
2019-02-18T23:10:15.637Z,80.90
2019-02-18T23:12:44.942Z,80.90
2019-02-18T23:15:14.261Z,80.90
2019-02-18T23:17:43.595Z,80.70
2019-02-18T23:20:13.396Z,80.70
2019-02-18T23:22:42.726Z,80.90
2019-02-18T23:25:12.156Z,80.90
2019-02-18T23:27:41.531Z,80.90
2019-02-18T23:30:11.091Z,80.80
2019-02-18T23:32:40.385Z,80.70
2019-02-18T23:35:09.850Z,80.60
2019-02-18T23:37:39.244Z,80.90
2019-02-18T23:40:08.628Z,81.40
2019-02-18T23:42:38.086Z,81.20
2019-02-18T23:45:07.402Z,81.40
2019-02-18T23:47:36.705Z,81.10
2019-02-18T23:50:07.059Z,81.20
2019-02-18T23:52:36.360Z,81.20
2019-02-18T23:55:06.276Z,81.20
2019-02-18T23:57:35.670Z,80.90
